PWSweather.com
Personal Weather Stations
Station Observations
BALTRELAY
Relay, Baltimore, MD 21227

RelayBaltimore, MD 21227

Lat: 39.24588, Lon: -76.719772

Elevation: 221

Station Type: Davis Vantage Pro2 (6153)

http://www.relayweather.com

Latest ConditionsUpdated 5:40:03 AM GMT Sunday, Nov 23, 2014
Currently Today's Max Today's Min Today's Average
Temperature 42.7°F5.9°C 43.6°F6.4°C 41.0°F5.0°C 42.5°F5.8°C
Dew Point 22.8°F-5.1°C 23.1°F-4.9°C 19.9°F-6.7°C 21.5°F-5.8°C
Winds 5.1 mph SW8.2 kmh SW 5.1 mph SW8.2 kmh SW - 1.7 mph 2.7 kmh
Wind Gusts 9.1 mph14.6 kmh 12.1 mph19.5 kmh - -
Humidity 45% 46% 39% 43%
Pressure 30.22 in1023.4 mb 30.28 in1025.4 mb 30.22 in1023.4 mb -
Hour Temp Dew Point Humidity Winds Wind Gusts Pressure Precip Precip Rate Daily Precip Total
05:40 AM 42.7°F5.9°C 22.8°F-5.1°C 45% 5.1 mph SW8.2 kmh SW 9.1 mph14.6 kmh 30.22 in1023.4 mb 0.00 in0.0 mm 0.00 in/hr0.0 mm/hr 0.00 in0.0 mm
05:30 AM 42.9°F6.1°C 23.0°F-5.0°C 45% 4.3 mph S6.9 kmh S 7.1 mph11.4 kmh 30.22 in1023.4 mb 0.00 in0.0 mm 0.00 in/hr0.0 mm/hr 0.00 in0.0 mm
05:20 AM 43.0°F6.1°C 23.1°F-4.9°C 45% 0.8 mph SW1.3 kmh SW 6.1 mph9.8 kmh 30.22 in1023.4 mb 0.00 in0.0 mm 0.00 in/hr0.0 mm/hr 0.00 in0.0 mm
05:15 AM 43.0°F6.1°C 23.1°F-4.9°C 45% 0.4 mph S0.6 kmh S 4.0 mph6.4 kmh 30.22 in1023.4 mb 0.00 in0.0 mm 0.00 in/hr0.0 mm/hr 0.00 in0.0 mm
05:10 AM 43.0°F6.1°C 23.1°F-4.9°C 45% 4.6 mph S7.4 kmh S 8.1 mph13.0 kmh 30.22 in1023.4 mb 0.00 in0.0 mm 0.00 in/hr0.0 mm/hr 0.00 in0.0 mm
05:00 AM 43.0°F6.1°C 23.1°F-4.9°C 45% 4.4 mph S7.1 kmh S 7.1 mph11.4 kmh 30.22 in1023.4 mb 0.00 in0.0 mm 0.00 in/hr0.0 mm/hr 0.00 in0.0 mm
04:50 AM 43.1°F6.2°C 22.7°F-5.2°C 44% 2.7 mph SSW4.3 kmh SSW 6.1 mph9.8 kmh 30.23 in1023.7 mb 0.00 in0.0 mm 0.00 in/hr0.0 mm/hr 0.00 in0.0 mm
04:45 AM 43.2°F6.2°C 22.7°F-5.2°C 44% 4.6 mph S7.4 kmh S 10.1 mph16.3 kmh 30.23 in1023.7 mb 0.00 in0.0 mm 0.00 in/hr0.0 mm/hr 0.00 in0.0 mm
04:40 AM 43.2°F6.2°C 22.7°F-5.2°C 44% 4.5 mph SSW7.2 kmh SSW 6.1 mph9.8 kmh 30.23 in1023.7 mb 0.00 in0.0 mm 0.00 in/hr0.0 mm/hr 0.00 in0.0 mm
04:30 AM 43.1°F6.2°C 22.6°F-5.2°C 44% 4.0 mph S6.4 kmh S 7.1 mph11.4 kmh 30.23 in1023.7 mb 0.00 in0.0 mm 0.00 in/hr0.0 mm/hr 0.00 in0.0 mm
04:20 AM 43.2°F6.2°C 22.2°F-5.4°C 43% 1.4 mph SW2.3 kmh SW 6.1 mph9.8 kmh 30.23 in1023.7 mb 0.00 in0.0 mm 0.00 in/hr0.0 mm/hr 0.00 in0.0 mm
04:15 AM 43.3°F6.3°C 22.3°F-5.4°C 43% 2.6 mph SSW4.2 kmh SSW 6.1 mph9.8 kmh 30.24 in1024.0 mb 0.00 in0.0 mm 0.00 in/hr0.0 mm/hr 0.00 in0.0 mm
04:10 AM 43.3°F6.3°C 22.3°F-5.4°C 43% 1.6 mph SSW2.6 kmh SSW 7.1 mph11.4 kmh 30.24 in1024.0 mb 0.00 in0.0 mm 0.00 in/hr0.0 mm/hr 0.00 in0.0 mm
04:00 AM 43.4°F6.3°C 22.3°F-5.4°C 43% 2.7 mph SW4.3 kmh SW 6.1 mph9.8 kmh 30.25 in1024.4 mb 0.00 in0.0 mm 0.00 in/hr0.0 mm/hr 0.00 in0.0 mm
03:50 AM 43.5°F6.4°C 21.9°F-5.6°C 42% 2.8 mph SW4.5 kmh SW 7.1 mph11.4 kmh 30.25 in1024.4 mb 0.00 in0.0 mm 0.00 in/hr0.0 mm/hr 0.00 in0.0 mm
03:45 AM 43.4°F6.3°C 22.4°F-5.3°C 43% 2.9 mph S4.7 kmh S 8.1 mph13.0 kmh 30.24 in1024.0 mb 0.00 in0.0 mm 0.00 in/hr0.0 mm/hr 0.00 in0.0 mm
03:40 AM 43.4°F6.3°C 22.3°F-5.4°C 43% 2.7 mph S4.3 kmh S 5.0 mph8.0 kmh 30.24 in1024.0 mb 0.00 in0.0 mm 0.00 in/hr0.0 mm/hr 0.00 in0.0 mm
03:30 AM 43.2°F6.2°C 22.2°F-5.4°C 43% 4.9 mph S7.9 kmh S 5.0 mph8.0 kmh 30.24 in1024.0 mb 0.00 in0.0 mm 0.00 in/hr0.0 mm/hr 0.00 in0.0 mm
03:20 AM 42.9°F6.1°C 21.9°F-5.6°C 43% 5.0 mph S8.0 kmh S 12.1 mph19.5 kmh 30.24 in1024.0 mb 0.00 in0.0 mm 0.00 in/hr0.0 mm/hr 0.00 in0.0 mm
03:15 AM 42.6°F5.9°C 22.2°F-5.4°C 44% 2.9 mph SSW4.7 kmh SSW 6.1 mph9.8 kmh 30.25 in1024.4 mb 0.00 in0.0 mm 0.00 in/hr0.0 mm/hr 0.00 in0.0 mm
03:10 AM 42.4°F5.8°C 21.5°F-5.8°C 43% 1.6 mph SSW2.6 kmh SSW 4.0 mph6.4 kmh 30.25 in1024.4 mb 0.00 in0.0 mm 0.00 in/hr0.0 mm/hr 0.00 in0.0 mm
03:00 AM 42.1°F5.6°C 21.2°F-6.0°C 43% 1.3 mph SSW2.1 kmh SSW 4.0 mph6.4 kmh 30.25 in1024.4 mb 0.00 in0.0 mm 0.00 in/hr0.0 mm/hr 0.00 in0.0 mm
02:50 AM 41.4°F5.2°C 21.6°F-5.8°C 45% 0.3 mph SSW0.5 kmh SSW -- 30.25 in1024.4 mb 0.00 in0.0 mm 0.00 in/hr0.0 mm/hr 0.00 in0.0 mm
02:45 AM 41.1°F5.1°C 20.8°F-6.2°C 44% 0.1 mph SSE0.2 kmh SSE 1.0 mph1.6 kmh 30.25 in1024.4 mb 0.00 in0.0 mm 0.00 in/hr0.0 mm/hr 0.00 in0.0 mm
02:40 AM 41.0°F5.0°C 20.7°F-6.3°C 44% 0.1 mph SSE0.2 kmh SSE 2.0 mph3.2 kmh 30.25 in1024.4 mb 0.00 in0.0 mm 0.00 in/hr0.0 mm/hr 0.00 in0.0 mm
02:30 AM 41.0°F5.0°C 21.3°F-5.9°C 45% Calm Calm -- 30.24 in1024.0 mb 0.00 in0.0 mm 0.00 in/hr0.0 mm/hr 0.00 in0.0 mm
02:20 AM 41.7°F5.4°C 20.8°F-6.2°C 43% Calm Calm -- 30.26 in1024.7 mb 0.00 in0.0 mm 0.00 in/hr0.0 mm/hr 0.00 in0.0 mm
02:15 AM 41.8°F5.4°C 20.9°F-6.2°C 43% Calm Calm -- 30.26 in1024.7 mb 0.00 in0.0 mm 0.00 in/hr0.0 mm/hr 0.00 in0.0 mm
02:10 AM 41.8°F5.4°C 20.9°F-6.2°C 43% 0.1 mph S0.2 kmh S -- 30.26 in1024.7 mb 0.00 in0.0 mm 0.00 in/hr0.0 mm/hr 0.00 in0.0 mm
02:00 AM 41.6°F5.3°C 21.3°F-5.9°C 44% Calm Calm -- 30.26 in1024.7 mb 0.00 in0.0 mm 0.00 in/hr0.0 mm/hr 0.00 in0.0 mm
01:50 AM 41.2°F5.1°C 21.9°F-5.6°C 46% Calm Calm -- 30.26 in1024.7 mb 0.00 in0.0 mm 0.00 in/hr0.0 mm/hr 0.00 in0.0 mm
01:45 AM 41.0°F5.0°C 21.8°F-5.7°C 46% Calm Calm -- 30.26 in1024.7 mb 0.00 in0.0 mm 0.00 in/hr0.0 mm/hr 0.00 in0.0 mm
01:40 AM 41.1°F5.1°C 20.8°F-6.2°C 44% Calm Calm -- 30.26 in1024.7 mb 0.00 in0.0 mm 0.00 in/hr0.0 mm/hr 0.00 in0.0 mm
01:30 AM 41.1°F5.1°C 20.8°F-6.2°C 44% Calm Calm -- 30.25 in1024.4 mb 0.00 in0.0 mm 0.00 in/hr0.0 mm/hr 0.00 in0.0 mm
01:20 AM 41.2°F5.1°C 20.4°F-6.4°C 43% 0.2 mph S0.3 kmh S -- 30.26 in1024.7 mb 0.00 in0.0 mm 0.00 in/hr0.0 mm/hr 0.00 in0.0 mm
01:15 AM 41.4°F5.2°C 20.5°F-6.4°C 43% Calm Calm -- 30.26 in1024.7 mb 0.00 in0.0 mm 0.00 in/hr0.0 mm/hr 0.00 in0.0 mm
01:10 AM 41.7°F5.4°C 20.9°F-6.2°C 43% Calm Calm -- 30.26 in1024.7 mb 0.00 in0.0 mm 0.00 in/hr0.0 mm/hr 0.00 in0.0 mm
01:00 AM 42.0°F5.6°C 20.5°F-6.4°C 42% Calm Calm -- 30.27 in1025.1 mb 0.00 in0.0 mm 0.00 in/hr0.0 mm/hr 0.00 in0.0 mm
12:50 AM 42.5°F5.8°C 20.4°F-6.4°C 41% Calm Calm -- 30.27 in1025.1 mb 0.00 in0.0 mm 0.00 in/hr0.0 mm/hr 0.00 in0.0 mm
12:45 AM 42.7°F5.9°C 20.0°F-6.7°C 40% Calm Calm -- 30.27 in1025.1 mb 0.00 in0.0 mm 0.00 in/hr0.0 mm/hr 0.00 in0.0 mm
12:40 AM 42.7°F5.9°C 20.0°F-6.7°C 40% Calm Calm -- 30.27 in1025.1 mb 0.00 in0.0 mm 0.00 in/hr0.0 mm/hr 0.00 in0.0 mm
12:30 AM 43.0°F6.1°C 20.3°F-6.5°C 40% Calm Calm -- 30.28 in1025.4 mb 0.00 in0.0 mm 0.00 in/hr0.0 mm/hr 0.00 in0.0 mm
12:20 AM 43.1°F6.2°C 20.4°F-6.4°C 40% 0.9 mph S1.4 kmh S 3.0 mph4.8 kmh 30.27 in1025.1 mb 0.00 in0.0 mm 0.00 in/hr0.0 mm/hr 0.00 in0.0 mm
12:15 AM 43.2°F6.2°C 19.9°F-6.7°C 39% 2.0 mph S3.2 kmh S 4.0 mph6.4 kmh 30.27 in1025.1 mb 0.00 in0.0 mm 0.00 in/hr0.0 mm/hr 0.00 in0.0 mm
12:10 AM 43.2°F6.2°C 19.9°F-6.7°C 39% 3.3 mph S5.3 kmh S 4.0 mph6.4 kmh 30.27 in1025.1 mb 0.00 in0.0 mm 0.00 in/hr0.0 mm/hr 0.00 in0.0 mm
12:00 AM 43.6°F6.4°C 20.2°F-6.6°C 39% 3.5 mph S5.6 kmh S 6.1 mph9.8 kmh 30.27 in1025.1 mb 0.00 in0.0 mm 0.00 in/hr0.0 mm/hr 0.00 in0.0 mm